createdAt,value
2017-10-02T00:02:19.046Z,28.20
2017-10-02T00:04:48.825Z,28.31
2017-10-02T00:07:19.343Z,28.19
2017-10-02T00:09:49.286Z,28.31
2017-10-02T00:12:18.643Z,28.29
2017-10-02T00:14:48.450Z,28.17
2017-10-02T00:17:18.142Z,28.30
2017-10-02T00:19:49.026Z,28.29
2017-10-02T00:22:21.559Z,28.08
2017-10-02T01:41:59.361Z,27.55
2017-10-02T01:44:31.424Z,27.39
2017-10-02T01:47:03.212Z,27.85
2017-10-02T01:49:33.830Z,27.90
2017-10-02T01:52:04.496Z,27.86
2017-10-02T01:54:35.425Z,27.92
2017-10-02T01:57:13.211Z,28.05
2017-10-02T01:59:45.531Z,27.72
2017-10-02T02:02:18.188Z,27.98
2017-10-02T02:04:58.521Z,28.10
2017-10-02T02:07:32.347Z,28.05
2017-10-02T02:10:10.869Z,28.08
2017-10-02T02:12:49.669Z,27.99
2017-10-02T02:15:20.614Z,28.11
2017-10-02T02:17:53.522Z,28.13
2017-10-02T02:20:28.779Z,28.14
2017-10-02T02:23:02.378Z,28.13
2017-10-02T02:25:34.261Z,27.81
2017-10-02T02:28:06.716Z,28.13
2017-10-02T02:30:39.195Z,27.92
2017-10-02T02:33:11.553Z,27.92
2017-10-02T02:35:44.662Z,28.14
2017-10-02T02:38:14.873Z,28.14
2017-10-02T02:40:48.246Z,28.14
2017-10-02T02:43:18.182Z,28.15
2017-10-02T02:45:48.838Z,28.15
2017-10-02T02:48:21.900Z,28.13
2017-10-02T02:50:56.126Z,28.01
2017-10-02T02:53:28.082Z,28.15
2017-10-02T02:56:01.119Z,28.15
2017-10-02T02:58:32.935Z,27.93
2017-10-02T03:01:06.542Z,27.92
2017-10-02T03:03:37.059Z,28.14
2017-10-02T03:06:08.294Z,28.14
2017-10-02T03:08:40.943Z,28.03
2017-10-02T03:11:12.069Z,28.14
2017-10-02T03:13:45.847Z,28.15
2017-10-02T03:16:16.768Z,28.02
2017-10-02T03:18:47.765Z,27.78
2017-10-02T03:21:19.477Z,28.13
2017-10-02T03:23:53.229Z,27.81
2017-10-02T03:26:23.104Z,27.99
2017-10-02T03:28:55.125Z,28.13
2017-10-02T03:31:26.400Z,28.02
2017-10-02T03:33:58.146Z,28.11
2017-10-02T03:36:31.101Z,28.11
2017-10-02T03:39:03.501Z,27.67
2017-10-02T03:41:34.037Z,28.12
2017-10-02T03:44:07.320Z,27.78
2017-10-02T03:46:38.917Z,28.12
2017-10-02T03:49:09.722Z,28.13
2017-10-02T03:51:42.091Z,27.92
2017-10-02T03:54:14.677Z,27.91
2017-10-02T03:56:45.588Z,28.13
2017-10-02T03:59:17.274Z,28.14
2017-10-02T04:01:47.361Z,28.14
2017-10-02T04:04:19.874Z,28.14
2017-10-02T04:06:50.114Z,27.81
2017-10-02T04:09:20.603Z,27.90
2017-10-02T04:11:50.997Z,28.14
2017-10-02T04:14:23.772Z,28.14
2017-10-02T04:16:54.955Z,27.57
2017-10-02T04:19:24.863Z,28.00
2017-10-02T04:21:56.724Z,27.81
2017-10-02T04:24:26.768Z,28.12
2017-10-02T04:26:56.464Z,28.15
2017-10-02T04:29:26.809Z,28.15
2017-10-02T04:31:57.696Z,27.91
2017-10-02T04:34:30.492Z,28.03
2017-10-02T04:37:00.802Z,28.13
2017-10-02T04:39:31.324Z,28.10
2017-10-02T04:42:01.902Z,28.12
2017-10-02T04:44:33.177Z,27.89
2017-10-02T04:47:03.916Z,28.12
2017-10-02T04:49:34.449Z,27.78
2017-10-02T04:52:04.463Z,28.13
2017-10-02T04:54:34.393Z,28.13
2017-10-02T04:57:04.329Z,28.12
2017-10-02T04:59:35.777Z,27.79
2017-10-02T05:02:05.749Z,28.12
2017-10-02T05:04:35.794Z,28.02
2017-10-02T05:07:06.287Z,27.70
2017-10-02T05:09:36.511Z,28.12
2017-10-02T05:12:07.890Z,28.10
2017-10-02T05:14:37.903Z,27.79
2017-10-02T05:17:08.386Z,27.80
2017-10-02T05:19:39.476Z,28.14
2017-10-02T05:22:09.670Z,28.14
2017-10-02T05:24:40.258Z,28.13
2017-10-02T05:27:12.276Z,28.14
2017-10-02T05:29:42.102Z,27.90
2017-10-02T05:32:13.236Z,28.15
2017-10-02T05:34:45.536Z,28.03
2017-10-02T05:37:15.840Z,28.15
2017-10-02T05:39:46.726Z,28.16
2017-10-02T05:42:16.809Z,28.17
2017-10-02T05:44:48.117Z,28.18
2017-10-02T05:47:18.218Z,28.09
2017-10-02T05:49:48.238Z,28.20
2017-10-02T05:52:19.145Z,28.10
2017-10-02T05:54:49.489Z,28.20
2017-10-02T05:57:20.818Z,27.95
2017-10-02T05:59:51.230Z,28.11
2017-10-02T06:02:21.993Z,28.26
2017-10-02T06:04:53.670Z,28.06
2017-10-02T06:07:23.716Z,28.16
2017-10-02T06:09:56.241Z,27.86
2017-10-02T06:12:26.281Z,28.31
2017-10-02T06:14:57.074Z,28.08
2017-10-02T06:17:27.440Z,28.29
2017-10-02T06:19:58.255Z,28.31
2017-10-02T06:22:30.393Z,28.29
2017-10-02T06:24:59.992Z,28.29
2017-10-02T06:27:30.474Z,28.30
2017-10-02T06:30:00.723Z,28.10
2017-10-02T06:32:32.559Z,28.10
2017-10-02T06:35:03.388Z,28.10
2017-10-02T06:37:33.866Z,28.33
2017-10-02T06:40:07.659Z,27.78
2017-10-02T06:42:38.468Z,28.24
2017-10-02T06:45:17.340Z,28.34
2017-10-02T06:47:47.949Z,28.31
2017-10-02T06:50:20.046Z,28.23
2017-10-02T06:52:50.270Z,28.33
2017-10-02T06:55:21.448Z,28.29
2017-10-02T06:57:51.104Z,27.89
2017-10-02T07:00:23.737Z,28.10
2017-10-02T07:02:54.736Z,28.36
2017-10-02T07:05:26.505Z,28.37
2017-10-02T07:07:58.698Z,28.37
2017-10-02T07:10:28.656Z,28.38
2017-10-02T07:12:58.870Z,28.38
2017-10-02T07:15:29.306Z,28.38
2017-10-02T07:18:00.104Z,28.39
2017-10-02T07:20:30.460Z,28.39
2017-10-02T07:23:03.417Z,28.39
2017-10-02T07:25:34.762Z,28.17
2017-10-02T07:28:04.477Z,28.28
2017-10-02T07:30:34.860Z,27.96
2017-10-02T07:33:05.442Z,28.05
2017-10-02T07:35:36.238Z,28.41
2017-10-02T07:38:07.226Z,28.41
2017-10-02T07:40:36.952Z,28.36
2017-10-02T07:43:07.843Z,28.19
2017-10-02T07:45:38.622Z,28.42
2017-10-02T07:48:09.411Z,28.09
2017-10-02T07:50:40.573Z,28.03
2017-10-02T07:53:10.153Z,28.35
2017-10-02T07:55:46.090Z,28.40
2017-10-02T07:58:16.288Z,28.31
2017-10-02T08:00:48.040Z,28.42
2017-10-02T08:03:19.031Z,28.43
2017-10-02T08:05:53.498Z,28.10
2017-10-02T08:08:27.522Z,28.43
2017-10-02T08:11:00.953Z,28.41
2017-10-02T08:13:31.084Z,28.44
2017-10-02T08:16:05.967Z,28.35
2017-10-02T08:18:37.641Z,28.20
2017-10-02T08:21:08.713Z,28.07
2017-10-02T08:23:40.180Z,28.47
2017-10-02T08:26:10.822Z,28.38
2017-10-02T08:28:41.173Z,28.48
2017-10-02T08:31:12.283Z,28.49
2017-10-02T08:33:42.273Z,28.27
2017-10-02T08:36:13.890Z,28.14
2017-10-02T08:38:44.795Z,28.34
2017-10-02T08:41:16.515Z,28.48
2017-10-02T08:43:47.699Z,28.48
2017-10-02T08:46:19.596Z,28.48
2017-10-02T08:48:52.914Z,28.22
2017-10-02T08:51:26.804Z,28.16
2017-10-02T08:54:11.420Z,28.41
2017-10-02T08:56:51.485Z,28.55
2017-10-02T08:59:23.919Z,28.43
2017-10-02T09:01:54.288Z,28.20
2017-10-02T09:04:24.671Z,28.43
2017-10-02T09:06:57.977Z,28.32
2017-10-02T09:09:28.160Z,28.55
2017-10-02T09:11:58.858Z,28.35
2017-10-02T09:14:28.714Z,28.32
2017-10-02T09:16:59.886Z,28.32
2017-10-02T09:19:39.163Z,28.57
2017-10-02T09:22:11.152Z,28.35
2017-10-02T09:24:43.229Z,28.57
2017-10-02T09:27:15.562Z,28.57
2017-10-02T09:29:57.304Z,28.59
2017-10-02T09:32:28.050Z,28.30
2017-10-02T09:34:59.577Z,28.57
2017-10-02T09:37:33.200Z,28.56
2017-10-02T09:40:06.568Z,28.56
2017-10-02T09:42:39.965Z,28.21
2017-10-02T09:45:12.627Z,28.50
2017-10-02T09:47:46.428Z,28.43
2017-10-02T09:50:16.686Z,28.53
2017-10-02T09:52:47.892Z,28.42
2017-10-02T09:55:17.935Z,28.39
2017-10-02T09:57:48.206Z,28.39
2017-10-02T10:00:18.611Z,28.38
2017-10-02T10:02:50.406Z,28.26
2017-10-02T10:05:21.324Z,28.49
2017-10-02T10:07:50.891Z,28.48
2017-10-02T10:10:20.918Z,28.48
2017-10-02T10:12:51.227Z,28.47
2017-10-02T10:17:29.716Z,28.47
2017-10-02T10:20:00.077Z,28.11
2017-10-02T10:22:31.283Z,27.85
2017-10-02T10:25:01.333Z,27.83
2017-10-02T10:27:31.523Z,28.35
2017-10-02T10:30:01.990Z,28.26
2017-10-02T10:32:32.434Z,28.39
2017-10-02T10:35:03.043Z,28.40
2017-10-02T10:37:32.872Z,28.41
2017-10-02T10:40:03.744Z,28.42
2017-10-02T10:42:34.279Z,28.42
2017-10-02T10:45:06.197Z,28.43
2017-10-02T10:47:36.079Z,28.43
2017-10-02T10:50:06.582Z,28.31
2017-10-02T10:52:36.894Z,28.29
2017-10-02T10:55:06.788Z,28.32
2017-10-02T10:57:36.478Z,28.40
2017-10-02T11:00:09.690Z,28.44
2017-10-02T11:02:39.402Z,28.39
2017-10-02T11:05:09.550Z,28.44
2017-10-02T11:07:39.763Z,28.32
2017-10-02T11:10:12.610Z,28.32
2017-10-02T11:12:45.603Z,28.42
2017-10-02T11:15:17.293Z,28.08
2017-10-02T11:17:48.560Z,28.28
2017-10-02T11:20:21.257Z,28.40
2017-10-02T11:22:54.707Z,28.37
2017-10-02T11:25:31.535Z,28.31
2017-10-02T11:28:05.483Z,28.42
2017-10-02T11:30:44.440Z,28.31
2017-10-02T11:33:17.056Z,28.37
2017-10-02T11:35:48.071Z,28.41
2017-10-02T11:38:18.760Z,28.42
2017-10-02T11:41:08.820Z,28.45
2017-10-02T11:43:47.181Z,28.43
2017-10-02T11:46:23.751Z,28.42
2017-10-02T11:48:57.351Z,28.08
2017-10-02T11:51:27.707Z,28.43
2017-10-02T11:53:58.802Z,28.45
2017-10-02T11:56:30.023Z,28.47
2017-10-02T11:59:03.057Z,28.34
2017-10-02T12:01:33.465Z,28.32
2017-10-02T12:04:05.060Z,28.47
2017-10-02T12:06:36.709Z,28.28
2017-10-02T12:09:07.848Z,28.27
2017-10-02T12:11:39.119Z,28.50
2017-10-02T12:14:10.969Z,28.51
2017-10-02T12:16:46.432Z,27.98
2017-10-02T12:19:17.954Z,28.50
2017-10-02T12:21:50.170Z,28.55
2017-10-02T12:24:25.954Z,28.56
2017-10-02T12:27:00.133Z,28.55
2017-10-02T12:32:20.253Z,28.56
2017-10-02T12:34:52.325Z,28.45
2017-10-02T12:37:23.469Z,28.59
2017-10-02T12:40:06.652Z,28.59
2017-10-02T12:42:38.393Z,28.49
2017-10-02T12:45:10.034Z,28.60
2017-10-02T12:47:42.622Z,28.28
2017-10-02T12:50:17.508Z,27.83
2017-10-02T12:52:49.828Z,28.61
2017-10-02T12:55:20.449Z,28.49
2017-10-02T12:57:51.168Z,28.58
2017-10-02T13:00:21.615Z,28.59
2017-10-02T13:02:52.045Z,28.58
2017-10-02T13:05:23.558Z,28.58
2017-10-02T13:07:53.594Z,28.47
2017-10-02T13:10:24.600Z,28.00
2017-10-02T13:12:59.091Z,28.59
2017-10-02T13:15:31.312Z,28.57
2017-10-02T13:18:03.687Z,28.30
2017-10-02T13:20:34.138Z,28.55
2017-10-02T13:23:03.808Z,28.55
2017-10-02T13:25:36.643Z,28.56
2017-10-02T13:28:07.033Z,28.47
2017-10-02T13:30:37.746Z,28.57
2017-10-02T13:33:12.111Z,28.55
2017-10-02T13:35:41.804Z,28.20
2017-10-02T13:38:11.566Z,28.56
2017-10-02T13:40:41.474Z,28.56
2017-10-02T13:43:11.368Z,28.57
2017-10-02T13:45:43.718Z,28.55
2017-10-02T13:48:13.796Z,28.59
2017-10-02T13:50:45.197Z,28.58
2017-10-02T13:53:16.276Z,28.57
2017-10-02T13:55:46.442Z,28.58
2017-10-02T13:58:16.425Z,28.59
2017-10-02T14:00:46.504Z,28.36
2017-10-02T14:03:19.440Z,28.60
2017-10-02T14:05:50.891Z,28.59
2017-10-02T14:08:24.312Z,28.59
2017-10-02T14:10:56.540Z,28.60
2017-10-02T14:13:27.450Z,28.60
2017-10-02T14:15:59.879Z,28.60
2017-10-02T14:18:31.021Z,28.60
2017-10-02T14:21:03.755Z,28.60
2017-10-02T14:23:33.928Z,28.60
2017-10-02T14:26:04.003Z,28.61
2017-10-02T14:28:33.401Z,28.38
2017-10-02T14:31:02.910Z,28.61
2017-10-02T14:33:33.558Z,28.39
2017-10-02T14:36:03.477Z,28.50
2017-10-02T14:38:33.894Z,28.62
2017-10-02T14:41:04.275Z,28.61
2017-10-02T14:43:34.073Z,28.61
2017-10-02T14:46:03.644Z,28.61
2017-10-02T14:48:33.825Z,28.61
2017-10-02T14:51:04.454Z,28.51
2017-10-02T14:53:35.453Z,28.61
2017-10-02T14:56:06.227Z,28.50
2017-10-02T14:58:36.618Z,28.49
2017-10-02T15:01:06.592Z,28.60
2017-10-02T15:03:36.659Z,28.61
2017-10-02T15:06:06.635Z,28.60
2017-10-02T15:08:36.467Z,28.60
2017-10-02T15:11:11.096Z,28.29
2017-10-02T15:13:41.754Z,28.44
2017-10-02T15:16:12.295Z,28.54
2017-10-02T15:18:42.816Z,28.57
2017-10-02T15:21:13.197Z,28.48
2017-10-02T15:23:43.315Z,28.50
2017-10-02T15:26:17.591Z,28.50
2017-10-02T15:28:48.152Z,28.65
2017-10-02T15:31:18.373Z,28.45
2017-10-02T15:33:49.412Z,28.64
2017-10-02T15:36:21.419Z,28.67
2017-10-02T15:38:54.780Z,28.68
2017-10-02T15:41:28.434Z,28.39
2017-10-02T15:44:01.262Z,28.68
2017-10-02T15:46:34.201Z,28.71
2017-10-02T15:49:07.413Z,28.71
2017-10-02T15:51:43.168Z,28.63
2017-10-02T15:54:17.901Z,28.71
2017-10-02T15:56:49.573Z,28.75
2017-10-02T15:59:21.016Z,28.73
2017-10-02T16:01:55.041Z,28.79
2017-10-02T16:04:27.290Z,28.28
2017-10-02T16:07:01.019Z,28.66
2017-10-02T16:09:32.172Z,28.73
2017-10-02T16:12:03.959Z,28.90
2017-10-02T16:14:34.582Z,28.94
2017-10-02T16:17:06.529Z,28.96
2017-10-02T16:19:37.958Z,28.65
2017-10-02T16:22:10.046Z,28.99
2017-10-02T16:24:41.150Z,28.89
2017-10-02T16:27:12.017Z,29.00
2017-10-02T16:29:43.984Z,28.81
2017-10-02T16:32:14.668Z,29.01
2017-10-02T16:34:45.861Z,29.00
2017-10-02T16:37:20.411Z,29.00
2017-10-02T16:39:51.964Z,29.00
2017-10-02T16:42:24.874Z,28.99
2017-10-02T16:44:58.762Z,28.30
2017-10-02T16:47:31.282Z,28.98
2017-10-02T16:50:04.279Z,28.98
2017-10-02T16:52:35.847Z,28.97
2017-10-02T16:55:07.918Z,28.87
2017-10-02T16:57:38.850Z,28.85
2017-10-02T17:00:12.857Z,28.84
2017-10-02T17:02:46.779Z,28.94
2017-10-02T17:05:16.897Z,28.94
2017-10-02T17:07:49.059Z,28.94
2017-10-02T17:10:19.405Z,28.94
2017-10-02T17:12:50.347Z,28.93
2017-10-02T17:15:21.668Z,28.92
2017-10-02T17:17:52.438Z,28.71
2017-10-02T17:20:24.041Z,28.90
2017-10-02T17:22:55.967Z,28.90
2017-10-02T17:25:30.366Z,28.79
2017-10-02T17:28:00.954Z,28.78
2017-10-02T17:30:32.657Z,28.89
2017-10-02T17:33:05.417Z,28.13
2017-10-02T17:35:36.408Z,28.88
2017-10-02T17:38:07.168Z,28.87
2017-10-02T17:40:36.933Z,28.52
2017-10-02T17:43:08.971Z,28.74
2017-10-02T17:45:41.106Z,28.63
2017-10-02T17:48:11.083Z,28.72
2017-10-02T17:50:43.213Z,28.84
2017-10-02T17:53:14.726Z,28.83
2017-10-02T17:55:52.659Z,28.37
2017-10-02T17:58:22.888Z,28.83
2017-10-02T18:00:58.930Z,28.61
2017-10-02T18:03:31.966Z,28.83
2017-10-02T18:06:03.021Z,28.81
2017-10-02T18:08:38.689Z,28.81
2017-10-02T18:11:10.128Z,28.80
2017-10-02T18:13:43.597Z,28.80
2017-10-02T18:19:02.940Z,28.79
2017-10-02T18:21:35.304Z,28.78
2017-10-02T18:24:07.212Z,28.56
2017-10-02T18:26:37.827Z,28.78
2017-10-02T18:29:10.925Z,28.59
2017-10-02T18:31:42.830Z,28.78
2017-10-02T18:34:14.571Z,28.76
2017-10-02T18:36:49.107Z,28.75
2017-10-02T18:39:23.054Z,28.75
2017-10-02T18:41:59.088Z,28.75
2017-10-02T18:44:31.581Z,28.75
2017-10-02T18:47:04.604Z,28.74
2017-10-02T18:49:40.996Z,28.40
2017-10-02T18:52:12.989Z,28.62
2017-10-02T18:54:44.339Z,28.73
2017-10-02T18:57:16.485Z,28.73
2017-10-02T18:59:51.022Z,28.60
2017-10-02T19:02:21.349Z,28.72
2017-10-02T19:04:53.450Z,28.71
2017-10-02T19:07:24.994Z,28.71
2017-10-02T19:09:57.546Z,28.70
2017-10-02T19:12:28.854Z,28.70
2017-10-02T19:14:59.889Z,28.70
2017-10-02T19:17:35.783Z,28.70
2017-10-02T19:20:09.987Z,28.70
2017-10-02T19:22:41.326Z,28.57
2017-10-02T19:25:13.895Z,28.44
2017-10-02T19:27:46.509Z,28.57
2017-10-02T19:30:17.971Z,28.69
2017-10-02T19:32:51.288Z,28.47
2017-10-02T19:35:23.430Z,28.69
2017-10-02T19:37:53.779Z,28.68
2017-10-02T19:40:24.680Z,28.68
2017-10-02T19:42:57.861Z,28.68
2017-10-02T19:45:31.723Z,28.67
2017-10-02T19:48:03.757Z,28.55
2017-10-02T19:50:38.174Z,28.54
2017-10-02T19:53:08.316Z,28.67
2017-10-02T19:55:41.846Z,27.75
2017-10-02T19:58:12.749Z,28.66
2017-10-02T20:00:45.003Z,28.66
2017-10-02T20:03:16.876Z,28.65
2017-10-02T20:05:47.978Z,28.65
2017-10-02T20:08:19.371Z,28.64
2017-10-02T20:10:51.869Z,28.65
2017-10-02T20:13:23.085Z,28.64
2017-10-02T20:15:54.789Z,28.63
2017-10-02T20:18:30.609Z,28.63
2017-10-02T20:21:04.258Z,28.52
2017-10-02T20:23:40.000Z,28.40
2017-10-02T20:26:12.165Z,28.63
2017-10-02T20:28:44.637Z,28.52
2017-10-02T20:31:48.851Z,28.62
2017-10-02T20:34:27.014Z,28.63
2017-10-02T20:37:00.275Z,28.62
2017-10-02T20:39:31.633Z,28.37
2017-10-02T20:42:03.003Z,28.60
2017-10-02T20:44:34.930Z,28.49
2017-10-02T20:47:10.792Z,28.61
2017-10-02T20:49:43.345Z,27.80
2017-10-02T20:52:15.125Z,28.25
2017-10-02T20:54:47.320Z,28.59
2017-10-02T20:57:20.023Z,28.59
2017-10-02T20:59:53.610Z,28.59
2017-10-02T21:02:24.183Z,28.36
2017-10-02T21:04:57.364Z,28.58
2017-10-02T21:07:30.608Z,28.59
2017-10-02T21:10:01.761Z,28.46
2017-10-02T21:12:35.910Z,28.59
2017-10-02T21:15:09.367Z,28.58
2017-10-02T21:17:41.419Z,28.58
2017-10-02T21:20:14.573Z,28.46
2017-10-02T21:22:46.363Z,28.58
2017-10-02T21:25:17.532Z,28.56
2017-10-02T21:27:47.993Z,28.42
2017-10-02T21:30:18.582Z,28.44
2017-10-02T21:32:50.035Z,28.54
2017-10-02T21:35:21.226Z,28.55
2017-10-02T21:37:51.817Z,28.55
2017-10-02T21:40:21.359Z,28.55
2017-10-02T21:42:50.995Z,28.55
2017-10-02T21:45:22.003Z,28.55
2017-10-02T21:47:53.468Z,28.55
2017-10-02T21:50:23.935Z,28.32
2017-10-02T21:52:57.415Z,28.54
2017-10-02T21:55:27.670Z,28.54
2017-10-02T21:57:58.197Z,28.54
2017-10-02T22:00:29.820Z,28.54
2017-10-02T22:03:01.397Z,28.53
2017-10-02T22:05:33.292Z,28.54
2017-10-02T22:08:04.684Z,28.16
2017-10-02T22:10:39.982Z,28.54
2017-10-02T22:13:14.028Z,28.53
2017-10-02T22:15:47.603Z,27.98
2017-10-02T22:18:18.969Z,28.42
2017-10-02T22:20:49.995Z,28.52
2017-10-02T22:23:22.498Z,28.52
2017-10-02T22:29:08.498Z,28.49
2017-10-02T22:31:38.127Z,28.52
2017-10-02T22:34:09.386Z,28.52
2017-10-02T22:36:40.877Z,28.52
2017-10-02T22:39:11.896Z,28.52
2017-10-02T22:41:43.409Z,28.52
2017-10-02T22:44:14.169Z,28.52
2017-10-02T22:46:49.475Z,28.39
2017-10-02T22:49:22.652Z,28.52
2017-10-02T22:51:55.266Z,28.53
2017-10-02T22:54:25.883Z,28.51
2017-10-02T22:56:57.431Z,28.51
2017-10-02T22:59:27.183Z,28.51
2017-10-02T23:01:58.448Z,28.51
2017-10-02T23:04:31.140Z,28.51
2017-10-02T23:07:01.870Z,28.51
2017-10-02T23:09:33.586Z,28.50
2017-10-02T23:12:05.221Z,28.38
2017-10-02T23:14:35.650Z,28.46
2017-10-02T23:17:07.430Z,28.33
2017-10-02T23:19:37.984Z,28.49
2017-10-02T23:22:09.346Z,28.49
2017-10-02T23:24:46.313Z,28.49
2017-10-02T23:27:18.789Z,28.50
2017-10-02T23:29:52.508Z,28.37
2017-10-02T23:32:24.661Z,28.48
2017-10-02T23:35:17.785Z,28.15
2017-10-02T23:37:56.548Z,28.21
2017-10-02T23:40:39.116Z,28.58
2017-10-02T23:43:13.728Z,28.14
2017-10-02T23:45:46.883Z,28.57
2017-10-02T23:48:17.766Z,28.53
2017-10-02T23:50:48.981Z,28.52
2017-10-02T23:53:18.767Z,28.50
2017-10-02T23:55:50.028Z,28.50
2017-10-02T23:58:19.805Z,28.48
